Aérodrome :
LOGIN :

S'inscrire | Disclaimer

   EN    FR    IT 

 










Légende :    VFR   VFR Marginal   IFR   IFR Intensif   IFR Très Intensif
Visi : 
Plafond : 
>= 8 km
>= 3000ft
5 à 8 km
1000 à 3000 ft
1500m à 5 km
500 à 1000 ft
800 à 1500m
200 à 500 ft
< 800m
< 200 ft
Symboles :   Orages  Brouillard  Fortes neiges  Fortes précipitations  Vent > 20 kt
SIGMETs :   Divers  Orages  Givrage  Turbulence  Onde Orograph.  Cendres Volcan.






- Altitude de l'aérodrome : 788 ft
- Code IATA : DCM


LFCK - Castres-Mazamet

DERNIER METAR :
  • 171530Z AUTO 29006KT 9999 FEW008 OVC040 09/09 Q1029 TEMPO 2000 RADZ BKN006

METARs EXPIRÉS :
  • 171500Z AUTO 30009KT 2100 RA BR BKN006 OVC019 09/09 Q1029 NOSIG
  • 171430Z AUTO 32004KT 2000 RA BR BKN005 OVC010 09/09 Q1029 NOSIG
  • 171400Z AUTO 31009KT 3700 DZ BR BKN007 BKN015 OVC031 09/09 Q1028 TEMPO 2000 RA
  • 171330Z AUTO 33016KT 3600 DZ BR BKN007 BKN011 OVC028 09/09 Q1028 TEMPO RA
  • 171300Z AUTO 34016G28KT 1900 RA BR BKN007 OVC016 10/09 Q1027 TEMPO 4000 RA BECMG 26010KT

TAF TAF LFCK
Valide du 17 à 15h jusqu'au 18 à 00h UTC


171400Z 1715/1724 31010KT 9999 BKN015
TEMPO 1715/1720 2000 RADZ BKN006
BECMG 1722/1724 CAVOK



MET'MAP, la Météo Aéronautique d'un coup d'oeil ! - Copyright ORBIFLY Décembre 2007 - Disclaimer

ORBIFLY MET'MAP TEAM :

Programmation & Développement : Alexandra Zaïnal
Sur une idée originale de : Baudouin d'Aumeries
Assistance à la programmation : Marc-Olivier Méhu
Soutien technique & logistique : Manuel Goepfert

Contact : metmap@orbifly.com




SOURCES & CREDITS :

   NOAA